Time;durP1;ratioP1;P1;durP2;ratioP2;P2;SDS_P1;SDS_P2;PMS_P1;PMS_P2;Temp;Humidity;BMP_temperature;BMP_pressure;BME280_temperature;BME280_humidity;BME280_pressure;Samples;Min_cycle;Max_cycle;Signal;HPM_P1;HPM_P2
2023/04/18 04:22:44;;;;;;;19.65;8.02;;;;;;;7.25;92.57;100673.63;5069051;28;20379;-69
2023/04/18 04:25:12;;;;;;;20.42;10.13;;;;;;;7.34;91.71;100680.72;5068036;28;20685;-69
2023/04/18 04:27:41;;;;;;;18.55;8.63;;;;;;;7.38;90.83;100680.47;5067585;28;20040;-69
2023/04/18 04:30:08;;;;;;;16.50;7.63;;;;;;;7.31;90.95;100672.25;5067980;28;20028;-69
2023/04/18 04:32:34;;;;;;;21.48;8.82;;;;;;;7.34;91.59;100682.53;5067890;28;20752;-69
2023/04/18 04:35:00;;;;;;;19.00;8.60;;;;;;;7.41;90.69;100688.09;5067800;28;20113;-69
2023/04/18 04:37:27;;;;;;;14.65;7.72;;;;;;;7.46;90.63;100683.22;5067427;28;20040;-69
2023/04/18 04:40:05;;;;;;;15.15;7.50;;;;;;;7.46;89.79;100686.72;5067853;28;20037;-68
2023/04/18 04:42:54;;;;;;;15.50;8.13;;;;;;;7.49;89.40;100693.53;5063254;28;20055;-69
2023/04/18 04:45:26;;;;;;;17.42;7.82;;;;;;;7.48;89.12;100686.56;5067586;28;20045;-69
2023/04/18 04:47:51;;;;;;;22.42;9.13;;;;;;;7.44;89.71;100691.31;5067190;28;20051;-69
2023/04/18 04:50:17;;;;;;;17.60;8.75;;;;;;;7.49;88.75;100690.88;5068781;28;20108;-69
2023/04/18 04:52:43;;;;;;;16.33;8.18;;;;;;;7.41;89.04;100693.41;5068815;28;20064;-68
2023/04/18 04:55:09;;;;;;;14.50;7.50;;;;;;;7.39;89.15;100698.88;5068577;28;20033;-70
2023/04/18 04:57:35;;;;;;;15.02;7.10;;;;;;;7.39;89.37;100698.88;5067077;28;20025;-69
2023/04/18 05:00:08;;;;;;;13.15;7.25;;;;;;;7.40;89.25;100695.22;5067348;28;20044;-68
2023/04/18 05:02:34;;;;;;;18.05;8.35;;;;;;;7.34;88.77;100693.97;5067209;28;20127;-69
2023/04/18 05:04:59;;;;;;;16.90;7.30;;;;;;;7.45;88.69;100697.47;5068566;28;20071;-70
2023/04/18 05:07:25;;;;;;;13.48;7.18;;;;;;;7.28;89.37;100696.34;5068081;28;20032;-69
2023/04/18 05:09:52;;;;;;;12.90;7.05;;;;;;;7.24;90.34;100701.13;5068455;28;20389;-69
2023/04/18 05:12:18;;;;;;;13.82;7.47;;;;;;;7.26;90.27;100701.81;5068378;28;20051;-69
2023/04/18 05:14:43;;;;;;;16.70;7.72;;;;;;;7.35;89.36;100708.06;5067085;28;20049;-68
2023/04/18 05:17:08;;;;;;;13.02;7.40;;;;;;;7.35;89.35;100706.25;5067844;28;20040;-69
2023/04/18 05:19:34;;;;;;;16.15;6.57;;;;;;;7.30;89.45;100705.00;5068188;28;20044;-68
2023/04/18 05:21:59;;;;;;;13.00;7.03;;;;;;;7.21;90.07;100709.31;5067879;28;20401;-68
2023/04/18 05:24:25;;;;;;;12.77;7.22;;;;;;;7.27;89.54;100710.59;5068079;28;20071;-69
2023/04/18 05:26:50;;;;;;;11.15;7.03;;;;;;;7.22;90.33;100718.94;5067818;28;20048;-68
2023/04/18 05:29:16;;;;;;;11.73;6.95;;;;;;;7.22;89.61;100710.16;5066507;28;20040;-69
2023/04/18 05:31:41;;;;;;;12.02;6.80;;;;;;;7.20;89.33;100718.25;5067899;28;20039;-69
2023/04/18 05:34:06;;;;;;;12.48;6.45;;;;;;;7.35;88.70;100724.78;5054695;28;20033;-69
2023/04/18 05:36:32;;;;;;;12.18;7.38;;;;;;;7.33;89.78;100724.13;5054538;28;20395;-69
2023/04/18 05:38:57;;;;;;;10.20;6.22;;;;;;;7.36;89.05;100728.28;5054291;28;20040;-69
2023/04/18 05:41:23;;;;;;;11.93;6.47;;;;;;;7.36;89.82;100722.97;5054677;28;20037;-69
2023/04/18 05:43:48;;;;;;;11.00;6.75;;;;;;;7.39;88.92;100719.22;5054639;28;20071;-69
2023/04/18 05:46:14;;;;;;;8.95;5.88;;;;;;;7.26;90.21;100725.66;5053268;28;20029;-69
2023/04/18 05:48:39;;;;;;;14.88;6.45;;;;;;;7.35;89.14;100729.25;5054235;28;20394;-67
2023/04/18 05:51:04;;;;;;;9.38;6.22;;;;;;;7.37;89.02;100737.06;5054383;28;20040;-67
2023/04/18 05:53:30;;;;;;;11.90;6.78;;;;;;;7.26;89.56;100725.66;5054363;28;20130;-68
2023/04/18 05:55:57;;;;;;;9.85;6.30;;;;;;;7.18;89.93;100728.16;5054271;28;20533;-66
2023/04/18 05:58:23;;;;;;;12.93;7.47;;;;;;;7.17;90.26;100723.84;5052890;28;20041;-57
2023/04/18 06:00:48;;;;;;;12.82;6.40;;;;;;;7.27;91.69;100729.97;5054086;28;20040;-54
2023/04/18 06:03:14;;;;;;;11.10;6.22;;;;;;;7.17;90.51;100733.59;5053523;28;20052;-65
2023/04/18 06:05:40;;;;;;;11.55;6.18;;;;;;;7.25;90.48;100726.63;5054141;28;20041;-67
2023/04/18 06:08:06;;;;;;;11.63;7.00;;;;;;;7.28;90.64;100726.34;5052531;28;20044;-66
2023/04/18 06:10:32;;;;;;;11.65;6.35;;;;;;;7.35;90.03;100726.63;5054084;28;20120;-67
2023/04/18 06:12:57;;;;;;;10.60;6.35;;;;;;;7.40;90.23;100737.63;5054045;28;20037;-66
2023/04/18 06:15:23;;;;;;;10.85;5.88;;;;;;;7.44;90.21;100735.56;5053976;28;20569;-66
2023/04/18 06:17:49;;;;;;;11.93;6.50;;;;;;;7.50;89.62;100732.34;5053700;28;20118;-67
2023/04/18 06:20:15;;;;;;;12.55;6.07;;;;;;;7.40;89.94;100726.19;5053853;28;20456;-66
2023/04/18 06:22:40;;;;;;;8.38;5.32;;;;;;;7.11;91.16;100720.91;5052666;28;20041;-66
2023/04/18 06:25:07;;;;;;;10.15;6.10;;;;;;;7.33;90.10;100721.47;5054068;28;20060;-65
2023/04/18 06:27:33;;;;;;;12.93;5.75;;;;;;;7.38;90.53;100733.47;5053484;28;20076;-66
2023/04/18 06:29:58;;;;;;;8.45;5.07;;;;;;;7.39;90.48;100732.47;5053615;28;20131;-66
2023/04/18 06:32:24;;;;;;;9.57;6.18;;;;;;;7.43;90.18;100737.34;5053621;28;20482;-65
2023/04/18 06:34:49;;;;;;;11.23;6.63;;;;;;;7.37;90.61;100737.94;5053778;28;20099;-66
2023/04/18 06:37:16;;;;;;;12.55;6.30;;;;;;;7.57;89.94;100744.88;5053673;28;20178;-66
2023/04/18 06:39:41;;;;;;;11.05;5.93;;;;;;;7.59;89.36;100742.91;5053493;28;20127;-66
2023/04/18 06:42:06;;;;;;;10.15;6.13;;;;;;;7.63;89.92;100743.47;5053608;28;20171;-65
2023/04/18 06:44:35;;;;;;;12.15;6.90;;;;;;;7.71;90.11;100746.25;5051511;28;20482;-66
2023/04/18 06:47:01;;;;;;;9.23;5.97;;;;;;;7.79;88.99;100748.19;5053022;28;20052;-65
2023/04/18 06:49:27;;;;;;;8.68;6.10;;;;;;;7.82;88.30;100751.41;5053281;28;20045;-66
2023/04/18 06:51:52;;;;;;;8.60;5.45;;;;;;;7.89;88.80;100760.47;5053378;28;20032;-66
2023/04/18 06:54:18;;;;;;;9.68;6.18;;;;;;;7.72;89.64;100749.75;5052086;28;20494;-65
2023/04/18 06:56:43;;;;;;;8.95;5.60;;;;;;;7.69;90.26;100756.16;5053093;28;20094;-65
2023/04/18 06:59:08;;;;;;;9.45;5.45;;;;;;;7.66;90.24;100759.09;5052924;28;20041;-66
2023/04/18 07:01:39;;;;;;;10.98;6.22;;;;;;;7.80;89.66;100758.66;5051821;28;20095;-66
2023/04/18 07:04:04;;;;;;;8.95;6.20;;;;;;;7.81;89.75;100749.69;5052147;28;20068;-64
2023/04/18 07:06:30;;;;;;;11.30;6.30;;;;;;;7.95;89.58;100755.53;5053271;28;20548;-65
2023/04/18 07:08:58;;;;;;;10.63;5.93;;;;;;;7.92;89.78;100748.72;5052802;28;20044;-66
2023/04/18 07:11:24;;;;;;;9.18;5.75;;;;;;;8.09;89.27;100753.28;5053132;28;20033;-66
2023/04/18 07:13:49;;;;;;;14.20;6.57;;;;;;;8.15;88.74;100744.75;5052961;28;20127;-66
2023/04/18 07:16:15;;;;;;;9.93;5.97;;;;;;;8.27;88.01;100755.97;5052807;28;20064;-66
2023/04/18 07:18:40;;;;;;;10.10;6.97;;;;;;;8.31;88.69;100760.03;5053010;28;20044;-68
2023/04/18 07:21:06;;;;;;;10.52;6.30;;;;;;;8.49;86.87;100754.00;5053100;28;20041;-65
2023/04/18 07:23:31;;;;;;;10.68;6.10;;;;;;;8.64;87.14;100750.69;5053161;28;20139;-65
2023/04/18 07:25:58;;;;;;;8.55;5.53;;;;;;;8.59;87.07;100752.94;5052554;28;20407;-65
2023/04/18 07:28:23;;;;;;;9.07;5.78;;;;;;;8.69;86.89;100753.72;5052274;28;20043;-66
2023/04/18 07:30:49;;;;;;;8.77;5.45;;;;;;;8.68;86.86;100748.56;5052667;28;20123;-65
2023/04/18 07:33:14;;;;;;;11.15;6.40;;;;;;;8.76;85.78;100748.66;5052602;28;20075;-67
2023/04/18 07:35:40;;;;;;;12.43;6.43;;;;;;;8.66;86.91;100758.47;5051187;28;20464;-67
2023/04/18 07:38:06;;;;;;;11.70;6.20;;;;;;;8.71;86.67;100758.88;5052169;28;20478;-65
2023/04/18 07:40:31;;;;;;;10.35;6.13;;;;;;;8.75;87.28;100762.09;5051246;28;20106;-67
2023/04/18 07:42:56;;;;;;;11.25;5.40;;;;;;;8.79;87.24;100748.34;5052468;28;20100;-66
2023/04/18 07:45:22;;;;;;;9.55;5.68;;;;;;;8.80;87.43;100755.34;5052388;28;20035;-66
2023/04/18 07:47:47;;;;;;;8.65;5.07;;;;;;;8.86;86.23;100751.25;5051949;28;20442;-66
2023/04/18 07:50:12;;;;;;;10.65;5.85;;;;;;;8.90;87.32;100748.13;5051067;28;20048;-66
2023/04/18 07:52:38;;;;;;;9.40;5.45;;;;;;;9.02;86.27;100759.41;5052317;28;20120;-66
2023/04/18 07:55:04;;;;;;;10.57;6.18;;;;;;;9.24;85.06;100755.44;5051029;28;20086;-65
2023/04/18 07:57:29;;;;;;;9.43;5.40;;;;;;;9.27;85.69;100760.47;5051658;28;20402;-65
2023/04/18 07:59:55;;;;;;;9.68;5.15;;;;;;;9.30;85.02;100764.63;5051842;28;20123;-66
2023/04/18 08:02:21;;;;;;;9.73;5.80;;;;;;;9.31;84.90;100756.50;5052117;28;20032;-67
2023/04/18 08:04:48;;;;;;;9.00;5.82;;;;;;;9.62;83.19;100766.75;5052627;28;20048;-66
2023/04/18 08:07:14;;;;;;;9.65;5.70;;;;;;;9.66;83.69;100760.97;5052448;28;20063;-67
2023/04/18 08:09:40;;;;;;;8.20;5.68;;;;;;;9.69;83.96;100757.97;5052499;28;20037;-66
2023/04/18 08:12:05;;;;;;;8.48;5.00;;;;;;;9.56;83.83;100767.34;5052118;28;20033;-66
2023/04/18 08:14:31;;;;;;;8.65;5.20;;;;;;;9.60;84.23;100774.03;5052046;28;20037;-67
2023/04/18 08:16:56;;;;;;;10.23;6.32;;;;;;;9.61;83.94;100762.41;5033887;28;20506;-64
2023/04/18 08:19:22;;;;;;;9.13;5.03;;;;;;;9.35;84.72;100765.84;5050789;28;20124;-67
2023/04/18 08:21:49;;;;;;;9.23;5.30;;;;;;;9.49;85.06;100759.16;5051872;28;20417;-66
2023/04/18 08:24:15;;;;;;;11.20;6.75;;;;;;;9.54;84.64;100753.38;5052253;28;20559;-66
2023/04/18 08:26:40;;;;;;;8.25;5.68;;;;;;;9.56;85.19;100767.34;5050574;28;20080;-66
2023/04/18 08:29:06;;;;;;;9.15;5.85;;;;;;;9.66;85.28;100773.44;5051884;28;20033;-66
2023/04/18 08:31:31;;;;;;;7.90;4.70;;;;;;;9.56;85.78;100770.00;5051873;28;20390;-66
2023/04/18 08:33:56;;;;;;;12.20;6.15;;;;;;;9.43;85.56;100767.75;5051867;28;20094;-65
2023/04/18 08:36:23;;;;;;;8.98;5.70;;;;;;;9.47;85.33;100775.28;5051698;28;20502;-67
2023/04/18 08:38:49;;;;;;;10.40;5.30;;;;;;;9.31;86.17;100767.13;5050517;28;20059;-65
2023/04/18 08:41:19;;;;;;;8.13;5.10;;;;;;;9.20;87.92;100768.22;5051810;28;20474;-66
2023/04/18 08:43:47;;;;;;;8.80;5.30;;;;;;;9.16;87.61;100774.81;5051782;28;20064;-66
2023/04/18 08:46:13;;;;;;;12.90;6.57;;;;;;;9.32;86.98;100770.63;5050595;28;20036;-66
2023/04/18 08:48:38;;;;;;;8.32;5.30;;;;;;;9.34;87.36;100777.47;5051459;28;20731;-66
2023/04/18 08:51:04;;;;;;;7.55;5.03;;;;;;;9.33;86.49;100770.50;5050577;28;20064;-65
2023/04/18 08:53:32;;;;;;;7.13;4.35;;;;;;;9.44;87.28;100783.53;5050732;28;20136;-65
2023/04/18 08:55:59;;;;;;;8.77;4.85;;;;;;;9.55;85.99;100766.53;5051593;28;20063;-65
2023/04/18 08:58:26;;;;;;;8.77;5.18;;;;;;;9.67;85.83;100777.75;5050223;28;20041;-66
2023/04/18 09:00:52;;;;;;;9.27;5.40;;;;;;;9.78;86.15;100775.69;5051512;28;20048;-64
2023/04/18 09:03:40;;;;;;;10.38;5.53;;;;;;;9.81;85.39;100779.03;5051480;28;20410;-66
2023/04/18 09:06:12;;;;;;;7.95;5.47;;;;;;;9.82;87.17;100775.38;5051375;28;20514;-51
2023/04/18 09:08:40;;;;;;;9.23;5.13;;;;;;;9.79;85.68;100769.38;5053323;28;20045;-64
2023/04/18 09:11:23;;;;;;;12.15;6.70;;;;;;;9.98;85.07;100784.31;5055146;28;20087;-66
2023/04/18 09:13:49;;;;;;;8.88;5.30;;;;;;;10.15;83.83;100779.06;5053840;28;20128;-66
2023/04/18 09:16:19;;;;;;;8.90;5.47;;;;;;;10.33;83.41;100771.88;5054919;28;20486;-65
2023/04/18 09:19:12;;;;;;;9.02;5.43;;;;;;;10.49;82.22;100761.28;5054732;28;20044;-66
2023/04/18 09:21:40;;;;;;;10.25;5.78;;;;;;;10.82;79.21;100762.28;5051787;28;20132;-66
2023/04/18 09:24:23;;;;;;;9.57;5.28;;;;;;;11.19;78.48;100749.50;5055021;28;20041;-66
2023/04/18 09:26:50;;;;;;;8.77;5.20;;;;;;;11.48;77.93;100763.19;5054742;28;20082;-66
2023/04/18 09:29:17;;;;;;;9.65;5.00;;;;;;;11.75;75.65;100753.19;5054745;28;20055;-66
2023/04/18 09:31:59;;;;;;;6.60;5.70;;;;;;;11.72;75.22;100751.66;5054991;28;20059;-66
2023/04/18 09:34:26;;;;;;;6.70;4.47;;;;;;;11.94;73.69;100759.03;5054909;28;20095;-65
2023/04/18 09:37:10;;;;;;;7.18;4.97;;;;;;;12.17;74.50;100769.81;5054503;28;20040;-66
2023/04/18 09:39:38;;;;;;;8.43;4.50;;;;;;;12.06;73.68;100769.31;5054714;28;20040;-66
2023/04/18 09:42:04;;;;;;;8.57;4.95;;;;;;;12.22;74.26;100766.63;5054663;28;20037;-65
2023/04/18 09:44:30;;;;;;;9.05;5.15;;;;;;;12.26;71.75;100772.44;5054427;28;20045;-65
2023/04/18 09:46:55;;;;;;;9.60;5.72;;;;;;;12.25;71.62;100774.28;5054190;28;20044;-65
2023/04/18 09:49:21;;;;;;;7.80;5.65;;;;;;;12.27;71.57;100774.16;5054339;28;20048;-65
2023/04/18 09:51:50;;;;;;;8.27;5.40;;;;;;;12.03;72.23;100762.50;5054509;28;20069;-65
2023/04/18 09:54:16;;;;;;;7.70;4.60;;;;;;;12.11;73.84;100773.16;5054364;28;20516;-66
2023/04/18 09:56:43;;;;;;;10.10;5.82;;;;;;;12.08;74.73;100780.69;5054233;28;20044;-65
2023/04/18 09:59:10;;;;;;;7.05;4.85;;;;;;;12.14;73.37;100778.19;5054071;28;20037;-66
2023/04/18 10:01:36;;;;;;;9.02;5.72;;;;;;;11.60;76.04;100764.50;5054144;28;20111;-66
2023/04/18 10:04:05;;;;;;;6.93;5.07;;;;;;;11.77;75.75;100768.00;5054204;28;20041;-65
2023/04/18 10:06:36;;;;;;;9.07;5.50;;;;;;;11.74;76.78;100770.22;5054096;28;20068;-66
2023/04/18 10:09:03;;;;;;;8.48;6.13;;;;;;;11.71;76.77;100771.34;5053756;28;20087;-65
2023/04/18 10:11:31;;;;;;;9.15;5.35;;;;;;;11.47;78.93;100768.69;5054028;28;20025;-65
2023/04/18 10:14:01;;;;;;;7.30;5.22;;;;;;;11.60;77.40;100772.50;5053998;28;20075;-66
2023/04/18 10:16:28;;;;;;;8.13;5.25;;;;;;;11.43;79.24;100765.53;5053835;28;20493;-65
2023/04/18 10:18:53;;;;;;;7.18;5.15;;;;;;;11.48;78.07;100765.03;5052407;28;20554;-66
2023/04/18 10:21:20;;;;;;;6.93;4.72;;;;;;;11.22;78.98;100770.53;5053856;28;20029;-66
2023/04/18 10:23:47;;;;;;;10.10;5.47;;;;;;;11.13;80.00;100764.31;5053800;28;20504;-66
2023/04/18 10:26:13;;;;;;;9.75;5.18;;;;;;;11.25;79.80;100763.00;5053716;28;20033;-66
2023/04/18 10:29:08;;;;;;;7.68;4.70;;;;;;;11.29;80.46;100758.19;5053451;28;20397;-67
2023/04/18 10:31:37;;;;;;;11.80;5.82;;;;;;;11.43;80.20;100749.53;5048850;28;20090;-55
2023/04/18 10:34:06;;;;;;;6.95;4.35;;;;;;;11.79;77.96;100751.81;5052568;28;20375;-67
2023/04/18 10:36:32;;;;;;;11.68;5.22;;;;;;;12.17;76.15;100750.28;5053530;28;20074;-67
2023/04/18 10:39:20;;;;;;;8.52;5.55;;;;;;;12.73;73.63;100751.91;5053434;28;20406;-67
2023/04/18 10:41:50;;;;;;;7.30;4.82;;;;;;;13.22;70.11;100750.78;5053472;28;20047;-66
2023/04/18 10:44:18;;;;;;;7.65;5.15;;;;;;;13.14;69.37;100740.97;5053471;28;20076;-66
2023/04/18 10:46:49;;;;;;;8.80;5.30;;;;;;;12.97;70.32;100745.56;5053304;28;20127;-65
2023/04/18 10:49:19;;;;;;;5.88;4.07;;;;;;;12.86;70.49;100753.19;5053176;28;20033;-66
2023/04/18 10:51:51;;;;;;;8.38;5.30;;;;;;;12.72;71.92;100752.91;5053371;28;20044;-66
2023/04/18 10:54:34;;;;;;;8.70;5.05;;;;;;;12.79;71.91;100744.19;5053105;28;20524;-65
2023/04/18 10:57:02;;;;;;;8.25;5.25;;;;;;;12.84;71.51;100749.81;5052887;28;20115;-66
2023/04/18 10:59:29;;;;;;;7.53;4.90;;;;;;;12.82;72.11;100746.50;5053102;28;20020;-66
2023/04/18 11:02:07;;;;;;;7.43;5.18;;;;;;;13.13;70.23;100739.28;5053051;28;20032;-66
2023/04/18 11:04:33;;;;;;;9.40;5.13;;;;;;;12.71;72.48;100729.00;5053211;28;20045;-65
2023/04/18 11:06:58;;;;;;;7.93;5.00;;;;;;;12.89;72.46;100731.44;5052754;28;20036;-67
2023/04/18 11:09:24;;;;;;;6.15;4.55;;;;;;;12.85;72.05;100728.28;5052835;28;20598;-66
2023/04/18 11:12:06;;;;;;;6.82;4.35;;;;;;;12.73;74.21;100729.69;5052947;28;20398;-66
2023/04/18 11:14:45;;;;;;;7.95;4.53;;;;;;;12.85;74.42;100724.78;5052868;28;20033;-65
2023/04/18 11:17:31;;;;;;;7.63;4.70;;;;;;;13.04;72.11;100717.13;5052592;28;20394;-67
2023/04/18 11:20:07;;;;;;;7.07;4.80;;;;;;;13.12;71.63;100723.44;5052796;28;20044;-67
2023/04/18 11:22:55;;;;;;;5.68;3.97;;;;;;;13.07;70.87;100712.44;5052412;28;20040;-65
2023/04/18 11:25:25;;;;;;;5.95;3.83;;;;;;;13.08;70.62;100714.09;5048769;28;20049;-67
2023/04/18 11:27:51;;;;;;;5.95;3.90;;;;;;;13.16;71.69;100712.19;5052254;28;20028;-66
2023/04/18 11:30:16;;;;;;;8.10;4.72;;;;;;;13.17;70.42;100711.19;5052020;28;20556;-67
2023/04/18 11:32:42;;;;;;;6.18;4.15;;;;;;;13.35;70.26;100694.84;5052261;28;20095;-67
2023/04/18 11:35:10;;;;;;;7.25;4.72;;;;;;;13.66;70.92;100708.13;5051097;28;20066;-66
2023/04/18 11:37:37;;;;;;;5.70;3.80;;;;;;;14.02;68.85;100708.25;5034016;28;20033;-66
2023/04/18 11:40:06;;;;;;;6.13;4.18;;;;;;;14.22;67.65;100689.78;5052019;28;20047;-67
2023/04/18 11:42:33;;;;;;;6.82;4.78;;;;;;;14.70;65.04;100690.16;5051995;28;20025;-66
2023/04/18 11:44:59;;;;;;;5.70;4.13;;;;;;;14.78;62.77;100689.22;5052021;28;20045;-65
2023/04/18 11:47:30;;;;;;;7.05;4.28;;;;;;;14.74;63.35;100690.63;5050886;28;20044;-65
2023/04/18 11:50:06;;;;;;;6.80;4.72;;;;;;;14.79;62.40;100688.19;5049402;28;20033;-66
2023/04/18 11:52:33;;;;;;;6.25;3.95;;;;;;;14.71;62.90;100691.81;5049844;28;20025;-66
2023/04/18 11:55:28;;;;;;;7.53;4.25;;;;;;;14.06;66.30;100703.34;5051200;28;20033;-65
2023/04/18 11:57:55;;;;;;;6.72;4.18;;;;;;;14.10;66.50;100705.47;5040898;28;20047;-65
2023/04/18 12:00:37;;;;;;;5.70;4.18;;;;;;;13.94;67.57;100708.31;5051556;28;20482;-65
2023/04/18 12:03:14;;;;;;;6.13;3.70;;;;;;;13.78;67.99;100698.63;5051494;28;20028;-65
2023/04/18 12:05:39;;;;;;;6.20;4.00;;;;;;;13.71;69.85;100711.09;5050350;28;20044;-66
2023/04/18 12:08:18;;;;;;;5.22;3.75;;;;;;;13.47;70.68;100704.09;5050547;28;20032;-65
2023/04/18 12:10:46;;;;;;;4.88;3.95;;;;;;;13.39;73.30;100708.69;5051240;28;20033;-66
2023/04/18 12:13:12;;;;;;;6.10;4.00;;;;;;;13.50;70.75;100713.63;5031805;28;20037;-65
2023/04/18 12:15:39;;;;;;;5.55;3.67;;;;;;;13.61;70.79;100710.50;5051161;28;20035;-65
2023/04/18 12:18:07;;;;;;;5.55;3.95;;;;;;;13.87;70.36;100714.59;5050478;28;20482;-65
2023/04/18 12:20:35;;;;;;;5.35;4.10;;;;;;;14.17;68.49;100697.53;5051168;28;20103;-65
2023/04/18 12:23:02;;;;;;;4.85;3.30;;;;;;;14.39;67.54;100693.88;5051394;28;20044;-65
2023/04/18 12:25:28;;;;;;;6.35;4.30;;;;;;;14.61;65.26;100692.16;5049754;28;20119;-65
2023/04/18 12:28:11;;;;;;;5.63;3.95;;;;;;;14.57;66.43;100690.03;5050492;28;20170;-66
2023/04/18 12:30:37;;;;;;;5.25;3.92;;;;;;;14.84;66.35;100696.50;5050081;28;20064;-66
2023/04/18 12:33:03;;;;;;;6.47;3.88;;;;;;;14.86;66.05;100681.88;5033267;28;20110;-66
2023/04/18 12:35:30;;;;;;;6.18;4.15;;;;;;;14.72;65.07;100672.03;5051497;28;20041;-65
2023/04/18 12:37:59;;;;;;;6.50;4.13;;;;;;;14.39;65.89;100696.56;5051649;28;20400;-66
2023/04/18 12:40:25;;;;;;;9.23;4.47;;;;;;;14.21;67.54;100687.25;5051781;28;20098;-66
2023/04/18 12:42:52;;;;;;;4.40;3.60;;;;;;;14.36;66.63;100683.56;5052746;28;20503;-67
2023/04/18 12:45:18;;;;;;;5.35;3.78;;;;;;;14.37;67.15;100684.38;5055609;28;20036;-66
2023/04/18 12:47:45;;;;;;;6.45;3.95;;;;;;;13.92;68.56;100680.06;5055377;28;20029;-66
2023/04/18 12:50:15;;;;;;;6.05;3.72;;;;;;;13.69;69.78;100675.63;5055656;28;20638;-67
2023/04/18 12:52:41;;;;;;;7.68;3.95;;;;;;;14.06;68.05;100687.28;5055475;28;20037;-66
2023/04/18 12:55:07;;;;;;;6.03;3.80;;;;;;;14.11;67.72;100684.88;5055587;28;20037;-66
2023/04/18 12:57:33;;;;;;;5.28;3.80;;;;;;;13.95;68.23;100698.44;5055073;28;20041;-66
2023/04/18 12:59:59;;;;;;;8.00;3.90;;;;;;;14.02;66.89;100681.47;5055408;28;20035;-67
2023/04/18 13:02:25;;;;;;;5.90;3.80;;;;;;;14.21;66.42;100680.03;5055375;28;20067;-66
2023/04/18 13:04:51;;;;;;;4.55;3.15;;;;;;;14.17;67.36;100677.94;5055297;28;20056;-65
2023/04/18 13:07:17;;;;;;;4.60;3.50;;;;;;;14.36;66.25;100675.53;5055019;28;20409;-66
2023/04/18 13:09:43;;;;;;;5.10;3.22;;;;;;;14.46;66.19;100682.41;5055550;28;20052;-66
2023/04/18 13:12:08;;;;;;;5.47;3.45;;;;;;;14.32;65.15;100679.59;5055241;28;20033;-66
2023/04/18 13:14:33;;;;;;;6.03;3.13;;;;;;;14.65;65.98;100676.50;5053954;28;20513;-67
2023/04/18 13:16:59;;;;;;;4.82;2.85;;;;;;;14.99;64.10;100662.41;5054747;28;20029;-66
2023/04/18 13:19:25;;;;;;;5.03;3.13;;;;;;;15.18;63.11;100667.13;5054902;28;20052;-66
2023/04/18 13:21:51;;;;;;;4.53;2.97;;;;;;;15.27;61.84;100667.84;5054885;28;20025;-65
2023/04/18 13:24:16;;;;;;;3.97;3.05;;;;;;;15.16;62.45;100661.13;5054998;28;20390;-65
2023/04/18 13:26:41;;;;;;;3.28;2.78;;;;;;;14.99;63.04;100664.25;5054856;28;20132;-66
2023/04/18 13:29:07;;;;;;;4.20;2.97;;;;;;;14.74;63.70;100667.34;5054597;28;20049;-66
2023/04/18 13:31:32;;;;;;;5.45;3.05;;;;;;;14.92;62.44;100672.22;5055054;28;20067;-66
2023/04/18 13:33:58;;;;;;;3.28;2.45;;;;;;;14.93;63.17;100665.84;5054797;28;20037;-66
2023/04/18 13:36:23;;;;;;;4.35;3.05;;;;;;;14.69;64.54;100667.06;5054852;28;20041;-67
2023/04/18 13:38:49;;;;;;;3.83;2.70;;;;;;;14.64;65.08;100664.13;5054351;28;20044;-66
2023/04/18 13:41:15;;;;;;;3.00;2.45;;;;;;;14.75;64.51;100663.63;5054566;28;20043;-68
2023/04/18 13:43:40;;;;;;;4.20;2.92;;;;;;;14.61;63.75;100659.16;5054546;28;20041;-67
2023/04/18 13:46:06;;;;;;;3.78;2.45;;;;;;;14.63;64.42;100657.91;5053385;28;20124;-67
2023/04/18 13:48:31;;;;;;;3.58;2.42;;;;;;;15.02;63.36;100667.41;5054068;28;20131;-67
2023/04/18 13:50:56;;;;;;;2.80;2.15;;;;;;;15.26;61.63;100662.63;5053144;28;20045;-67
2023/04/18 13:53:22;;;;;;;2.97;2.05;;;;;;;15.23;62.30;100665.72;5036121;28;20071;-67
2023/04/18 13:55:47;;;;;;;3.90;2.58;;;;;;;15.33;60.93;100660.88;5054229;28;20043;-65
2023/04/18 13:58:12;;;;;;;3.10;2.40;;;;;;;15.34;61.67;100649.09;5053660;28;20041;-67
2023/04/18 14:00:38;;;;;;;4.90;2.88;;;;;;;15.47;61.30;100644.66;5052825;28;20121;-69
2023/04/18 14:03:03;;;;;;;3.00;2.25;;;;;;;15.24;61.31;100622.59;5054214;28;20051;-68
2023/04/18 14:05:30;;;;;;;3.72;2.70;;;;;;;15.54;60.82;100638.50;5054057;28;20040;-67
2023/04/18 14:08:01;;;;;;;3.80;3.13;;;;;;;15.33;61.15;100660.88;5053983;28;20033;-66
2023/04/18 14:10:29;;;;;;;3.25;2.60;;;;;;;15.60;60.86;100649.28;5054141;28;20062;-66
2023/04/18 14:12:55;;;;;;;2.83;2.47;;;;;;;15.76;59.99;100644.66;5054048;28;20548;-67
2023/04/18 14:15:21;;;;;;;2.92;2.45;;;;;;;15.63;60.00;100656.16;5052657;28;20647;-67
2023/04/18 14:17:47;;;;;;;4.07;2.40;;;;;;;15.84;59.28;100656.06;5053578;28;20044;-67
2023/04/18 14:20:14;;;;;;;3.50;2.22;;;;;;;15.65;60.19;100646.88;5053937;28;20040;-68
2023/04/18 14:22:40;;;;;;;2.85;2.15;;;;;;;15.53;60.83;100652.97;5053682;28;20040;-66
2023/04/18 14:25:07;;;;;;;3.65;2.58;;;;;;;15.67;59.57;100654.75;5053866;28;20052;-66
2023/04/18 14:27:33;;;;;;;3.50;2.67;;;;;;;15.60;59.43;100659.19;5053572;28;20132;-66
2023/04/18 14:29:58;;;;;;;4.38;1.88;;;;;;;15.16;61.10;100652.25;5053687;28;20163;-66
2023/04/18 14:32:25;;;;;;;3.33;2.25;;;;;;;14.77;62.17;100653.53;5053680;28;20394;-66
2023/04/18 14:34:51;;;;;;;3.85;2.55;;;;;;;14.83;62.80;100652.75;5053570;28;20036;-67
2023/04/18 14:37:16;;;;;;;2.65;2.25;;;;;;;14.84;62.97;100656.28;5053222;28;20127;-66
2023/04/18 14:39:42;;;;;;;2.60;2.00;;;;;;;14.82;63.27;100661.00;5053846;28;20124;-67
2023/04/18 14:42:07;;;;;;;2.53;2.22;;;;;;;14.68;64.91;100664.56;5054167;28;20130;-68
2023/04/18 14:44:33;;;;;;;3.35;2.47;;;;;;;14.76;64.20;100653.72;5053376;28;20103;-66
2023/04/18 14:46:58;;;;;;;2.60;1.88;;;;;;;14.84;63.71;100645.56;5053040;28;20498;-65
2023/04/18 14:49:23;;;;;;;3.00;2.30;;;;;;;15.00;63.77;100657.88;5035541;28;20044;-66
2023/04/18 14:51:49;;;;;;;3.42;2.08;;;;;;;14.98;63.91;100650.00;5053201;28;20079;-66
2023/04/18 14:54:14;;;;;;;2.65;2.25;;;;;;;15.01;63.50;100646.13;5052114;28;20112;-65
2023/04/18 14:56:40;;;;;;;2.72;2.05;;;;;;;15.21;62.23;100647.13;5051795;28;20067;-66
2023/04/18 14:59:05;;;;;;;3.10;2.28;;;;;;;15.34;62.83;100646.41;5051748;28;20115;-66
2023/04/18 15:01:33;;;;;;;2.97;2.60;;;;;;;15.48;59.11;100648.16;5051673;28;20064;-66
2023/04/18 15:03:59;;;;;;;2.90;2.03;;;;;;;15.55;58.69;100648.22;5051728;28;20133;-66
2023/04/18 15:06:26;;;;;;;2.60;2.08;;;;;;;15.59;57.66;100652.19;5052117;28;20133;-67
2023/04/18 15:08:51;;;;;;;3.20;2.00;;;;;;;15.56;57.46;100647.19;5052628;28;20461;-66
2023/04/18 15:11:16;;;;;;;3.25;2.15;;;;;;;15.56;57.51;100645.31;5052925;28;20124;-64
2023/04/18 15:13:42;;;;;;;2.70;2.08;;;;;;;15.42;58.81;100647.09;5052820;28;20108;-66
2023/04/18 15:16:07;;;;;;;3.05;2.13;;;;;;;15.40;58.47;100648.31;5052708;28;20132;-68
2023/04/18 15:18:33;;;;;;;3.03;2.08;;;;;;;15.59;58.77;100653.00;5052386;28;20041;-66
2023/04/18 15:20:58;;;;;;;2.33;2.08;;;;;;;15.46;58.34;100652.91;5052598;28;20406;-66
2023/04/18 15:23:24;;;;;;;2.75;2.30;;;;;;;15.48;58.14;100649.00;5052704;28;20127;-67
2023/04/18 15:25:50;;;;;;;2.72;1.92;;;;;;;15.53;57.97;100647.59;5051270;28;20049;-66
2023/04/18 15:28:17;;;;;;;2.55;2.05;;;;;;;15.52;59.13;100651.28;5052351;28;20044;-67
2023/04/18 15:30:42;;;;;;;3.90;1.83;;;;;;;15.29;58.48;100651.53;5052610;28;20040;-67
2023/04/18 15:33:09;;;;;;;2.55;1.90;;;;;;;15.26;59.72;100650.06;5052438;28;20041;-67
2023/04/18 15:35:35;;;;;;;2.90;2.40;;;;;;;15.16;59.75;100650.38;5052529;28;20068;-67
2023/04/18 15:38:00;;;;;;;3.00;1.92;;;;;;;15.25;60.13;100647.56;5052187;28;20083;-67
2023/04/18 15:40:26;;;;;;;2.40;2.00;;;;;;;15.36;59.88;100647.03;5052420;28;20045;-67
2023/04/18 15:42:53;;;;;;;3.22;2.30;;;;;;;15.29;60.36;100652.34;5052081;28;20439;-66
2023/04/18 15:45:19;;;;;;;2.88;2.03;;;;;;;15.33;61.50;100659.00;5051034;28;20040;-67
2023/04/18 15:47:45;;;;;;;2.70;2.10;;;;;;;15.34;59.88;100644.56;5051891;28;20106;-67
2023/04/18 15:50:11;;;;;;;2.45;2.22;;;;;;;15.33;59.31;100642.91;5052260;28;20486;-67